sensor_id;sensor_type;location;lat;lon;timestamp;temperature;humidity
5176;DHT22;2607;50.934;6.934;2023-06-04T00:01:58;17.00;56.00
5176;DHT22;2607;50.934;6.934;2023-06-04T00:04:25;17.00;56.10
5176;DHT22;2607;50.934;6.934;2023-06-04T00:06:51;17.00;56.20
5176;DHT22;2607;50.934;6.934;2023-06-04T00:09:16;17.00;56.30
5176;DHT22;2607;50.934;6.934;2023-06-04T00:11:42;17.00;56.30
5176;DHT22;2607;50.934;6.934;2023-06-04T00:14:08;17.00;56.30
5176;DHT22;2607;50.934;6.934;2023-06-04T00:16:33;16.90;56.20
5176;DHT22;2607;50.934;6.934;2023-06-04T00:19:01;16.90;56.20
5176;DHT22;2607;50.934;6.934;2023-06-04T00:21:27;16.90;56.30
5176;DHT22;2607;50.934;6.934;2023-06-04T00:23:52;16.90;56.40
5176;DHT22;2607;50.934;6.934;2023-06-04T00:26:18;16.80;56.30
5176;DHT22;2607;50.934;6.934;2023-06-04T00:28:43;16.80;56.60
5176;DHT22;2607;50.934;6.934;2023-06-04T00:31:09;16.80;56.60
5176;DHT22;2607;50.934;6.934;2023-06-04T00:33:35;16.80;56.60
5176;DHT22;2607;50.934;6.934;2023-06-04T00:36:01;16.80;56.80
5176;DHT22;2607;50.934;6.934;2023-06-04T00:38:27;16.70;57.00
5176;DHT22;2607;50.934;6.934;2023-06-04T00:40:53;16.70;57.30
5176;DHT22;2607;50.934;6.934;2023-06-04T00:43:18;16.70;57.60
5176;DHT22;2607;50.934;6.934;2023-06-04T00:45:44;16.70;57.80
5176;DHT22;2607;50.934;6.934;2023-06-04T00:48:10;16.60;58.20
5176;DHT22;2607;50.934;6.934;2023-06-04T00:50:37;16.60;59.30
5176;DHT22;2607;50.934;6.934;2023-06-04T00:53:04;16.60;59.00
5176;DHT22;2607;50.934;6.934;2023-06-04T00:55:30;16.50;59.20
5176;DHT22;2607;50.934;6.934;2023-06-04T00:57:57;16.50;59.40
5176;DHT22;2607;50.934;6.934;2023-06-04T01:00:22;16.50;59.60
5176;DHT22;2607;50.934;6.934;2023-06-04T01:02:49;16.50;59.70
5176;DHT22;2607;50.934;6.934;2023-06-04T01:05:29;16.40;60.00
5176;DHT22;2607;50.934;6.934;2023-06-04T01:07:58;16.40;60.00
5176;DHT22;2607;50.934;6.934;2023-06-04T01:10:23;16.30;60.20
5176;DHT22;2607;50.934;6.934;2023-06-04T01:12:49;16.30;60.40
5176;DHT22;2607;50.934;6.934;2023-06-04T01:15:14;16.30;60.50
5176;DHT22;2607;50.934;6.934;2023-06-04T01:17:42;16.30;60.60
5176;DHT22;2607;50.934;6.934;2023-06-04T01:20:38;16.20;60.70
5176;DHT22;2607;50.934;6.934;2023-06-04T01:25:45;16.20;61.10
5176;DHT22;2607;50.934;6.934;2023-06-04T01:28:15;16.20;61.50
5176;DHT22;2607;50.934;6.934;2023-06-04T01:30:43;16.10;61.60
5176;DHT22;2607;50.934;6.934;2023-06-04T01:33:12;16.10;61.90
5176;DHT22;2607;50.934;6.934;2023-06-04T01:35:39;16.10;62.00
5176;DHT22;2607;50.934;6.934;2023-06-04T01:38:05;16.10;61.90
5176;DHT22;2607;50.934;6.934;2023-06-04T01:40:30;16.10;61.90
5176;DHT22;2607;50.934;6.934;2023-06-04T01:42:57;16.00;61.90
5176;DHT22;2607;50.934;6.934;2023-06-04T01:45:24;16.00;62.60
5176;DHT22;2607;50.934;6.934;2023-06-04T01:47:50;16.00;61.80
5176;DHT22;2607;50.934;6.934;2023-06-04T01:50:16;15.90;61.80
5176;DHT22;2607;50.934;6.934;2023-06-04T01:52:42;15.90;62.00
5176;DHT22;2607;50.934;6.934;2023-06-04T01:55:10;15.90;62.10
5176;DHT22;2607;50.934;6.934;2023-06-04T01:57:37;15.90;62.20
5176;DHT22;2607;50.934;6.934;2023-06-04T02:00:05;15.90;62.30
5176;DHT22;2607;50.934;6.934;2023-06-04T02:02:33;15.90;62.40
5176;DHT22;2607;50.934;6.934;2023-06-04T02:04:59;15.90;62.60
5176;DHT22;2607;50.934;6.934;2023-06-04T02:07:24;15.80;62.80
5176;DHT22;2607;50.934;6.934;2023-06-04T02:09:51;15.80;63.30
5176;DHT22;2607;50.934;6.934;2023-06-04T02:12:17;15.80;63.60
5176;DHT22;2607;50.934;6.934;2023-06-04T02:14:42;15.70;64.00
5176;DHT22;2607;50.934;6.934;2023-06-04T02:17:10;15.70;64.50
5176;DHT22;2607;50.934;6.934;2023-06-04T02:19:41;15.70;64.70
5176;DHT22;2607;50.934;6.934;2023-06-04T02:22:13;15.60;64.60
5176;DHT22;2607;50.934;6.934;2023-06-04T02:24:40;15.60;64.70
5176;DHT22;2607;50.934;6.934;2023-06-04T02:27:08;15.60;64.80
5176;DHT22;2607;50.934;6.934;2023-06-04T02:29:34;15.60;65.00
5176;DHT22;2607;50.934;6.934;2023-06-04T02:31:59;15.50;64.80
5176;DHT22;2607;50.934;6.934;2023-06-04T02:34:25;15.50;65.10
5176;DHT22;2607;50.934;6.934;2023-06-04T02:36:51;15.50;65.10
5176;DHT22;2607;50.934;6.934;2023-06-04T02:39:18;15.50;65.10
5176;DHT22;2607;50.934;6.934;2023-06-04T02:41:44;15.40;65.20
5176;DHT22;2607;50.934;6.934;2023-06-04T02:44:10;15.40;65.50
5176;DHT22;2607;50.934;6.934;2023-06-04T02:46:37;15.40;65.40
5176;DHT22;2607;50.934;6.934;2023-06-04T02:49:02;15.40;65.70
5176;DHT22;2607;50.934;6.934;2023-06-04T02:51:28;15.30;65.80
5176;DHT22;2607;50.934;6.934;2023-06-04T02:53:54;15.30;65.80
5176;DHT22;2607;50.934;6.934;2023-06-04T02:56:20;15.30;65.90
5176;DHT22;2607;50.934;6.934;2023-06-04T02:58:55;15.30;66.40
5176;DHT22;2607;50.934;6.934;2023-06-04T03:01:25;15.20;66.50
5176;DHT22;2607;50.934;6.934;2023-06-04T03:03:52;15.20;66.80
5176;DHT22;2607;50.934;6.934;2023-06-04T03:06:19;15.10;67.00
5176;DHT22;2607;50.934;6.934;2023-06-04T03:08:50;15.10;67.40
5176;DHT22;2607;50.934;6.934;2023-06-04T03:11:17;15.00;67.70
5176;DHT22;2607;50.934;6.934;2023-06-04T03:13:46;15.00;67.90
5176;DHT22;2607;50.934;6.934;2023-06-04T03:16:12;15.00;68.30
5176;DHT22;2607;50.934;6.934;2023-06-04T03:18:37;15.00;68.80
5176;DHT22;2607;50.934;6.934;2023-06-04T03:21:06;15.00;69.30
5176;DHT22;2607;50.934;6.934;2023-06-04T03:23:33;14.90;69.50
5176;DHT22;2607;50.934;6.934;2023-06-04T03:26:00;14.90;69.80
5176;DHT22;2607;50.934;6.934;2023-06-04T03:28:26;14.90;70.30
5176;DHT22;2607;50.934;6.934;2023-06-04T03:30:52;14.90;70.80
5176;DHT22;2607;50.934;6.934;2023-06-04T03:33:17;14.90;71.30
5176;DHT22;2607;50.934;6.934;2023-06-04T03:35:43;14.80;71.90
5176;DHT22;2607;50.934;6.934;2023-06-04T03:38:08;14.80;72.60
5176;DHT22;2607;50.934;6.934;2023-06-04T03:40:34;14.80;73.00
5176;DHT22;2607;50.934;6.934;2023-06-04T03:42:59;14.80;73.10
5176;DHT22;2607;50.934;6.934;2023-06-04T03:45:26;14.70;73.40
5176;DHT22;2607;50.934;6.934;2023-06-04T03:47:51;14.70;73.70
5176;DHT22;2607;50.934;6.934;2023-06-04T03:50:18;14.70;74.20
5176;DHT22;2607;50.934;6.934;2023-06-04T03:52:44;14.70;74.60
5176;DHT22;2607;50.934;6.934;2023-06-04T03:55:09;14.70;75.20
5176;DHT22;2607;50.934;6.934;2023-06-04T03:57:36;14.70;76.10
5176;DHT22;2607;50.934;6.934;2023-06-04T04:00:04;14.70;76.90
5176;DHT22;2607;50.934;6.934;2023-06-04T04:02:31;14.70;77.20
5176;DHT22;2607;50.934;6.934;2023-06-04T04:04:56;14.70;77.60
5176;DHT22;2607;50.934;6.934;2023-06-04T04:07:22;14.60;77.80
5176;DHT22;2607;50.934;6.934;2023-06-04T04:09:48;14.60;77.50
5176;DHT22;2607;50.934;6.934;2023-06-04T04:12:13;14.60;77.30
5176;DHT22;2607;50.934;6.934;2023-06-04T04:14:39;14.60;76.90
5176;DHT22;2607;50.934;6.934;2023-06-04T04:17:05;14.60;76.00
5176;DHT22;2607;50.934;6.934;2023-06-04T04:19:30;14.60;75.60
5176;DHT22;2607;50.934;6.934;2023-06-04T04:21:56;14.60;75.50
5176;DHT22;2607;50.934;6.934;2023-06-04T04:24:26;14.60;75.10
5176;DHT22;2607;50.934;6.934;2023-06-04T04:26:52;14.70;75.10
5176;DHT22;2607;50.934;6.934;2023-06-04T04:29:19;14.70;75.00
5176;DHT22;2607;50.934;6.934;2023-06-04T04:31:49;14.70;75.00
5176;DHT22;2607;50.934;6.934;2023-06-04T04:34:14;14.70;75.40
5176;DHT22;2607;50.934;6.934;2023-06-04T04:36:40;14.70;75.90
5176;DHT22;2607;50.934;6.934;2023-06-04T04:39:06;14.70;76.10
5176;DHT22;2607;50.934;6.934;2023-06-04T04:41:31;14.70;76.10
5176;DHT22;2607;50.934;6.934;2023-06-04T04:44:03;14.70;76.20
5176;DHT22;2607;50.934;6.934;2023-06-04T04:46:29;14.70;75.90
5176;DHT22;2607;50.934;6.934;2023-06-04T04:48:55;14.70;76.00
5176;DHT22;2607;50.934;6.934;2023-06-04T04:51:21;14.70;76.00
5176;DHT22;2607;50.934;6.934;2023-06-04T04:53:47;14.80;75.80
5176;DHT22;2607;50.934;6.934;2023-06-04T04:56:13;14.80;75.50
5176;DHT22;2607;50.934;6.934;2023-06-04T04:58:38;14.80;75.10
5176;DHT22;2607;50.934;6.934;2023-06-04T05:01:04;14.80;74.90
5176;DHT22;2607;50.934;6.934;2023-06-04T05:03:29;14.80;74.70
5176;DHT22;2607;50.934;6.934;2023-06-04T05:05:55;14.80;74.10
5176;DHT22;2607;50.934;6.934;2023-06-04T05:08:20;14.80;73.90
5176;DHT22;2607;50.934;6.934;2023-06-04T05:10:46;14.90;73.90
5176;DHT22;2607;50.934;6.934;2023-06-04T05:13:11;14.80;73.90
5176;DHT22;2607;50.934;6.934;2023-06-04T05:15:37;14.80;74.10
5176;DHT22;2607;50.934;6.934;2023-06-04T05:18:05;14.80;74.30
5176;DHT22;2607;50.934;6.934;2023-06-04T05:20:30;14.90;74.40
5176;DHT22;2607;50.934;6.934;2023-06-04T05:22:56;14.90;74.30
5176;DHT22;2607;50.934;6.934;2023-06-04T05:25:22;14.90;74.20
5176;DHT22;2607;50.934;6.934;2023-06-04T05:27:47;14.90;74.20
5176;DHT22;2607;50.934;6.934;2023-06-04T05:30:15;14.90;74.00
5176;DHT22;2607;50.934;6.934;2023-06-04T05:32:41;14.90;73.90
5176;DHT22;2607;50.934;6.934;2023-06-04T05:35:07;14.90;73.70
5176;DHT22;2607;50.934;6.934;2023-06-04T05:37:33;14.90;73.60
5176;DHT22;2607;50.934;6.934;2023-06-04T05:40:03;15.00;74.00
5176;DHT22;2607;50.934;6.934;2023-06-04T05:42:30;15.00;73.10
5176;DHT22;2607;50.934;6.934;2023-06-04T05:44:56;15.00;72.90
5176;DHT22;2607;50.934;6.934;2023-06-04T05:47:21;15.00;72.70
5176;DHT22;2607;50.934;6.934;2023-06-04T05:49:47;15.00;72.80
5176;DHT22;2607;50.934;6.934;2023-06-04T05:52:13;15.00;72.70
5176;DHT22;2607;50.934;6.934;2023-06-04T05:54:39;15.10;72.80
5176;DHT22;2607;50.934;6.934;2023-06-04T05:57:05;15.00;72.70
5176;DHT22;2607;50.934;6.934;2023-06-04T05:59:31;15.10;72.80
5176;DHT22;2607;50.934;6.934;2023-06-04T06:01:57;15.10;72.70
5176;DHT22;2607;50.934;6.934;2023-06-04T06:04:22;15.10;72.80
5176;DHT22;2607;50.934;6.934;2023-06-04T06:06:48;15.20;72.90
5176;DHT22;2607;50.934;6.934;2023-06-04T06:09:15;15.20;72.90
5176;DHT22;2607;50.934;6.934;2023-06-04T06:11:42;15.20;72.90
5176;DHT22;2607;50.934;6.934;2023-06-04T06:14:08;15.30;72.90
5176;DHT22;2607;50.934;6.934;2023-06-04T06:16:33;15.30;73.00
5176;DHT22;2607;50.934;6.934;2023-06-04T06:19:00;15.30;72.80
5176;DHT22;2607;50.934;6.934;2023-06-04T06:21:26;15.40;73.00
5176;DHT22;2607;50.934;6.934;2023-06-04T06:23:53;15.40;73.00
5176;DHT22;2607;50.934;6.934;2023-06-04T06:26:18;15.50;73.10
5176;DHT22;2607;50.934;6.934;2023-06-04T06:28:44;15.50;72.90
5176;DHT22;2607;50.934;6.934;2023-06-04T06:31:09;15.60;73.50
5176;DHT22;2607;50.934;6.934;2023-06-04T06:33:35;15.60;72.70
5176;DHT22;2607;50.934;6.934;2023-06-04T06:36:15;15.60;72.50
5176;DHT22;2607;50.934;6.934;2023-06-04T06:38:44;15.70;72.50
5176;DHT22;2607;50.934;6.934;2023-06-04T06:41:10;15.70;72.50
5176;DHT22;2607;50.934;6.934;2023-06-04T06:43:36;15.80;72.80
5176;DHT22;2607;50.934;6.934;2023-06-04T06:46:02;15.80;72.60
5176;DHT22;2607;50.934;6.934;2023-06-04T06:48:27;15.90;72.60
5176;DHT22;2607;50.934;6.934;2023-06-04T06:50:54;15.90;72.50
5176;DHT22;2607;50.934;6.934;2023-06-04T06:53:19;16.00;72.40
5176;DHT22;2607;50.934;6.934;2023-06-04T06:55:45;16.00;72.10
5176;DHT22;2607;50.934;6.934;2023-06-04T06:58:11;16.10;72.00
5176;DHT22;2607;50.934;6.934;2023-06-04T07:00:36;16.10;71.90
5176;DHT22;2607;50.934;6.934;2023-06-04T07:03:02;16.20;72.00
5176;DHT22;2607;50.934;6.934;2023-06-04T07:05:28;16.20;71.80
5176;DHT22;2607;50.934;6.934;2023-06-04T07:07:53;16.30;71.70
5176;DHT22;2607;50.934;6.934;2023-06-04T07:10:19;16.40;71.30
5176;DHT22;2607;50.934;6.934;2023-06-04T07:12:45;16.50;71.10
5176;DHT22;2607;50.934;6.934;2023-06-04T07:15:10;16.50;70.30
5176;DHT22;2607;50.934;6.934;2023-06-04T07:17:36;16.60;69.80
5176;DHT22;2607;50.934;6.934;2023-06-04T07:20:02;16.60;69.50
5176;DHT22;2607;50.934;6.934;2023-06-04T07:22:32;16.70;69.50
5176;DHT22;2607;50.934;6.934;2023-06-04T07:24:57;16.70;69.30
5176;DHT22;2607;50.934;6.934;2023-06-04T07:27:23;16.80;69.00
5176;DHT22;2607;50.934;6.934;2023-06-04T07:29:49;16.90;68.30
5176;DHT22;2607;50.934;6.934;2023-06-04T07:32:14;16.90;68.00
5176;DHT22;2607;50.934;6.934;2023-06-04T07:34:40;17.00;67.70
5176;DHT22;2607;50.934;6.934;2023-06-04T07:37:06;17.10;67.40
5176;DHT22;2607;50.934;6.934;2023-06-04T07:39:31;17.20;66.90
5176;DHT22;2607;50.934;6.934;2023-06-04T07:41:57;17.20;66.20
5176;DHT22;2607;50.934;6.934;2023-06-04T07:44:22;17.30;66.40
5176;DHT22;2607;50.934;6.934;2023-06-04T07:46:48;17.30;66.50
5176;DHT22;2607;50.934;6.934;2023-06-04T07:49:14;17.40;66.60
5176;DHT22;2607;50.934;6.934;2023-06-04T07:51:39;17.50;66.70
5176;DHT22;2607;50.934;6.934;2023-06-04T07:54:05;17.50;66.20
5176;DHT22;2607;50.934;6.934;2023-06-04T07:56:31;17.60;65.30
5176;DHT22;2607;50.934;6.934;2023-06-04T07:58:57;17.70;65.20
5176;DHT22;2607;50.934;6.934;2023-06-04T08:01:22;17.80;64.70
5176;DHT22;2607;50.934;6.934;2023-06-04T08:03:49;17.80;64.50
5176;DHT22;2607;50.934;6.934;2023-06-04T08:06:15;17.90;64.60
5176;DHT22;2607;50.934;6.934;2023-06-04T08:08:44;18.00;64.50
5176;DHT22;2607;50.934;6.934;2023-06-04T08:11:15;18.10;64.30
5176;DHT22;2607;50.934;6.934;2023-06-04T08:13:41;18.20;63.90
5176;DHT22;2607;50.934;6.934;2023-06-04T08:16:08;18.30;63.40
5176;DHT22;2607;50.934;6.934;2023-06-04T08:18:38;18.30;63.10
5176;DHT22;2607;50.934;6.934;2023-06-04T08:21:04;18.40;63.20
5176;DHT22;2607;50.934;6.934;2023-06-04T08:23:31;18.50;63.20
5176;DHT22;2607;50.934;6.934;2023-06-04T08:25:57;18.60;63.30
5176;DHT22;2607;50.934;6.934;2023-06-04T08:28:24;18.70;63.20
5176;DHT22;2607;50.934;6.934;2023-06-04T08:30:50;18.70;63.10
5176;DHT22;2607;50.934;6.934;2023-06-04T08:33:15;18.80;62.10
5176;DHT22;2607;50.934;6.934;2023-06-04T08:35:41;18.90;61.50
5176;DHT22;2607;50.934;6.934;2023-06-04T08:38:06;19.00;61.30
5176;DHT22;2607;50.934;6.934;2023-06-04T08:40:32;19.00;61.00
5176;DHT22;2607;50.934;6.934;2023-06-04T08:43:01;19.10;60.60
5176;DHT22;2607;50.934;6.934;2023-06-04T08:45:27;19.30;59.90
5176;DHT22;2607;50.934;6.934;2023-06-04T08:47:53;19.40;59.70
5176;DHT22;2607;50.934;6.934;2023-06-04T08:50:21;19.60;58.80
5176;DHT22;2607;50.934;6.934;2023-06-04T08:52:53;19.70;58.50
5176;DHT22;2607;50.934;6.934;2023-06-04T08:55:20;19.80;58.30
5176;DHT22;2607;50.934;6.934;2023-06-04T08:57:46;19.90;57.50
5176;DHT22;2607;50.934;6.934;2023-06-04T09:00:13;20.00;57.30
5176;DHT22;2607;50.934;6.934;2023-06-04T09:02:39;20.10;57.10
5176;DHT22;2607;50.934;6.934;2023-06-04T09:05:05;20.20;56.80
5176;DHT22;2607;50.934;6.934;2023-06-04T09:07:38;20.20;56.60
5176;DHT22;2607;50.934;6.934;2023-06-04T09:10:06;20.30;56.70
5176;DHT22;2607;50.934;6.934;2023-06-04T09:12:36;20.50;70.70
5176;DHT22;2607;50.934;6.934;2023-06-04T09:15:02;20.70;67.60
5176;DHT22;2607;50.934;6.934;2023-06-04T09:17:28;20.90;62.10
5176;DHT22;2607;50.934;6.934;2023-06-04T09:19:54;21.00;61.10
5176;DHT22;2607;50.934;6.934;2023-06-04T09:22:19;21.10;60.10
5176;DHT22;2607;50.934;6.934;2023-06-04T09:24:48;21.20;61.70
5176;DHT22;2607;50.934;6.934;2023-06-04T09:27:19;21.30;61.40
5176;DHT22;2607;50.934;6.934;2023-06-04T09:29:51;21.50;60.60
5176;DHT22;2607;50.934;6.934;2023-06-04T09:32:24;21.70;58.10
5176;DHT22;2607;50.934;6.934;2023-06-04T09:34:49;21.70;56.30
5176;DHT22;2607;50.934;6.934;2023-06-04T09:37:16;21.80;57.30
5176;DHT22;2607;50.934;6.934;2023-06-04T09:39:56;22.00;55.70
5176;DHT22;2607;50.934;6.934;2023-06-04T09:42:25;22.10;55.20
5176;DHT22;2607;50.934;6.934;2023-06-04T09:44:51;22.20;52.90
5176;DHT22;2607;50.934;6.934;2023-06-04T09:47:16;22.20;54.10
5176;DHT22;2607;50.934;6.934;2023-06-04T09:49:46;22.30;52.50
5176;DHT22;2607;50.934;6.934;2023-06-04T09:52:12;22.40;52.90
5176;DHT22;2607;50.934;6.934;2023-06-04T09:54:39;22.50;52.60
5176;DHT22;2607;50.934;6.934;2023-06-04T09:57:14;22.60;52.30
5176;DHT22;2607;50.934;6.934;2023-06-04T09:59:48;22.70;52.00
5176;DHT22;2607;50.934;6.934;2023-06-04T10:02:19;22.80;49.50
5176;DHT22;2607;50.934;6.934;2023-06-04T10:04:49;22.80;47.50
5176;DHT22;2607;50.934;6.934;2023-06-04T10:07:18;22.80;48.70
5176;DHT22;2607;50.934;6.934;2023-06-04T10:09:44;22.80;50.40
5176;DHT22;2607;50.934;6.934;2023-06-04T10:12:17;22.80;49.80
5176;DHT22;2607;50.934;6.934;2023-06-04T10:14:57;22.90;50.30
5176;DHT22;2607;50.934;6.934;2023-06-04T10:17:24;23.00;49.70
5176;DHT22;2607;50.934;6.934;2023-06-04T10:19:52;23.00;49.60
5176;DHT22;2607;50.934;6.934;2023-06-04T10:22:20;23.10;48.10
5176;DHT22;2607;50.934;6.934;2023-06-04T10:24:46;23.10;46.10
5176;DHT22;2607;50.934;6.934;2023-06-04T10:27:12;23.10;47.50
5176;DHT22;2607;50.934;6.934;2023-06-04T10:29:39;23.10;45.10
5176;DHT22;2607;50.934;6.934;2023-06-04T10:32:05;23.10;45.40
5176;DHT22;2607;50.934;6.934;2023-06-04T10:34:31;23.10;44.20
5176;DHT22;2607;50.934;6.934;2023-06-04T10:36:58;23.10;44.60
5176;DHT22;2607;50.934;6.934;2023-06-04T10:39:27;23.10;46.20
5176;DHT22;2607;50.934;6.934;2023-06-04T10:42:02;23.30;45.10
5176;DHT22;2607;50.934;6.934;2023-06-04T10:44:43;23.30;47.60
5176;DHT22;2607;50.934;6.934;2023-06-04T10:47:21;23.40;47.20
5176;DHT22;2607;50.934;6.934;2023-06-04T10:49:47;23.50;46.50
5176;DHT22;2607;50.934;6.934;2023-06-04T10:52:13;23.50;45.40
5176;DHT22;2607;50.934;6.934;2023-06-04T10:54:38;23.50;44.40
5176;DHT22;2607;50.934;6.934;2023-06-04T10:57:11;23.60;42.40
5176;DHT22;2607;50.934;6.934;2023-06-04T10:59:37;23.70;41.60
5176;DHT22;2607;50.934;6.934;2023-06-04T11:02:12;23.60;41.70
5176;DHT22;2607;50.934;6.934;2023-06-04T11:04:37;23.60;42.00
5176;DHT22;2607;50.934;6.934;2023-06-04T11:07:07;23.70;42.60
5176;DHT22;2607;50.934;6.934;2023-06-04T11:09:36;23.70;43.40
5176;DHT22;2607;50.934;6.934;2023-06-04T11:12:05;23.80;44.30
5176;DHT22;2607;50.934;6.934;2023-06-04T11:14:30;24.00;43.40
5176;DHT22;2607;50.934;6.934;2023-06-04T11:16:56;24.10;43.00
5176;DHT22;2607;50.934;6.934;2023-06-04T11:19:22;24.20;42.60
5176;DHT22;2607;50.934;6.934;2023-06-04T11:21:48;24.20;41.20
5176;DHT22;2607;50.934;6.934;2023-06-04T11:24:15;24.30;41.20
5176;DHT22;2607;50.934;6.934;2023-06-04T11:26:41;24.30;41.90
5176;DHT22;2607;50.934;6.934;2023-06-04T11:29:11;24.40;42.40
5176;DHT22;2607;50.934;6.934;2023-06-04T11:31:47;24.50;42.20
5176;DHT22;2607;50.934;6.934;2023-06-04T11:36:48;24.60;41.60
5176;DHT22;2607;50.934;6.934;2023-06-04T11:39:33;24.70;41.50
5176;DHT22;2607;50.934;6.934;2023-06-04T11:41:59;24.80;41.00
5176;DHT22;2607;50.934;6.934;2023-06-04T11:44:29;24.90;40.10
5176;DHT22;2607;50.934;6.934;2023-06-04T11:46:55;24.90;39.60
5176;DHT22;2607;50.934;6.934;2023-06-04T11:49:20;25.00;39.30
5176;DHT22;2607;50.934;6.934;2023-06-04T11:54:13;25.00;38.70
5176;DHT22;2607;50.934;6.934;2023-06-04T11:56:40;25.10;38.30
5176;DHT22;2607;50.934;6.934;2023-06-04T11:59:07;25.10;38.40
5176;DHT22;2607;50.934;6.934;2023-06-04T12:01:35;25.20;37.80
5176;DHT22;2607;50.934;6.934;2023-06-04T12:04:15;25.30;37.60
5176;DHT22;2607;50.934;6.934;2023-06-04T12:06:55;25.40;38.10
5176;DHT22;2607;50.934;6.934;2023-06-04T12:09:26;25.50;38.30
5176;DHT22;2607;50.934;6.934;2023-06-04T12:11:58;25.60;39.20
5176;DHT22;2607;50.934;6.934;2023-06-04T12:14:24;25.70;39.60
5176;DHT22;2607;50.934;6.934;2023-06-04T12:17:06;25.90;38.60
5176;DHT22;2607;50.934;6.934;2023-06-04T12:19:32;25.90;38.70
5176;DHT22;2607;50.934;6.934;2023-06-04T12:22:03;25.90;38.50
5176;DHT22;2607;50.934;6.934;2023-06-04T12:24:30;26.00;38.60
5176;DHT22;2607;50.934;6.934;2023-06-04T12:27:06;26.10;38.20
5176;DHT22;2607;50.934;6.934;2023-06-04T12:29:32;26.20;37.60
5176;DHT22;2607;50.934;6.934;2023-06-04T12:32:05;26.20;37.50
5176;DHT22;2607;50.934;6.934;2023-06-04T12:34:33;26.20;37.60
5176;DHT22;2607;50.934;6.934;2023-06-04T12:36:59;26.20;37.90
5176;DHT22;2607;50.934;6.934;2023-06-04T12:39:25;26.20;37.90
5176;DHT22;2607;50.934;6.934;2023-06-04T12:41:50;26.30;37.60
5176;DHT22;2607;50.934;6.934;2023-06-04T12:44:16;26.40;36.70
5176;DHT22;2607;50.934;6.934;2023-06-04T12:46:42;26.30;36.80
5176;DHT22;2607;50.934;6.934;2023-06-04T12:49:07;26.30;37.30
5176;DHT22;2607;50.934;6.934;2023-06-04T12:51:33;26.40;37.80
5176;DHT22;2607;50.934;6.934;2023-06-04T12:53:58;26.40;37.70
5176;DHT22;2607;50.934;6.934;2023-06-04T12:56:26;26.40;37.60
5176;DHT22;2607;50.934;6.934;2023-06-04T12:58:51;26.50;37.60
5176;DHT22;2607;50.934;6.934;2023-06-04T13:01:17;26.50;36.90
5176;DHT22;2607;50.934;6.934;2023-06-04T13:03:43;26.50;36.70
5176;DHT22;2607;50.934;6.934;2023-06-04T13:06:08;26.50;36.70
5176;DHT22;2607;50.934;6.934;2023-06-04T13:08:35;26.50;36.90
5176;DHT22;2607;50.934;6.934;2023-06-04T13:11:01;26.50;37.50
5176;DHT22;2607;50.934;6.934;2023-06-04T13:13:27;26.50;37.20
5176;DHT22;2607;50.934;6.934;2023-06-04T13:15:53;26.40;36.80
5176;DHT22;2607;50.934;6.934;2023-06-04T13:18:19;26.40;36.90
5176;DHT22;2607;50.934;6.934;2023-06-04T13:20:44;26.40;36.20
5176;DHT22;2607;50.934;6.934;2023-06-04T13:23:10;26.40;36.30
5176;DHT22;2607;50.934;6.934;2023-06-04T13:25:38;26.30;36.50
5176;DHT22;2607;50.934;6.934;2023-06-04T13:28:03;26.40;37.20
5176;DHT22;2607;50.934;6.934;2023-06-04T13:30:29;26.40;37.90
5176;DHT22;2607;50.934;6.934;2023-06-04T13:32:55;26.40;38.20
5176;DHT22;2607;50.934;6.934;2023-06-04T13:35:21;26.40;37.90
5176;DHT22;2607;50.934;6.934;2023-06-04T13:37:47;26.40;37.90
5176;DHT22;2607;50.934;6.934;2023-06-04T13:40:13;26.40;37.50
5176;DHT22;2607;50.934;6.934;2023-06-04T13:42:39;26.40;37.10
5176;DHT22;2607;50.934;6.934;2023-06-04T13:45:05;26.40;37.50
5176;DHT22;2607;50.934;6.934;2023-06-04T13:47:31;26.40;37.50
5176;DHT22;2607;50.934;6.934;2023-06-04T13:49:57;26.40;38.00
5176;DHT22;2607;50.934;6.934;2023-06-04T13:52:23;26.30;37.40
5176;DHT22;2607;50.934;6.934;2023-06-04T13:54:48;26.30;37.50
5176;DHT22;2607;50.934;6.934;2023-06-04T13:57:14;26.30;37.00
5176;DHT22;2607;50.934;6.934;2023-06-04T13:59:39;26.20;37.50
5176;DHT22;2607;50.934;6.934;2023-06-04T14:02:06;26.20;37.90
5176;DHT22;2607;50.934;6.934;2023-06-04T14:04:32;26.20;38.10
5176;DHT22;2607;50.934;6.934;2023-06-04T14:06:57;26.20;38.40
5176;DHT22;2607;50.934;6.934;2023-06-04T14:09:23;26.20;39.10
5176;DHT22;2607;50.934;6.934;2023-06-04T14:11:49;26.20;39.10
5176;DHT22;2607;50.934;6.934;2023-06-04T14:14:16;26.10;39.40
5176;DHT22;2607;50.934;6.934;2023-06-04T14:16:45;26.10;39.70
5176;DHT22;2607;50.934;6.934;2023-06-04T14:19:12;26.10;40.10
5176;DHT22;2607;50.934;6.934;2023-06-04T14:21:37;26.00;40.40
5176;DHT22;2607;50.934;6.934;2023-06-04T14:24:03;26.10;41.00
5176;DHT22;2607;50.934;6.934;2023-06-04T14:26:29;26.00;41.00
5176;DHT22;2607;50.934;6.934;2023-06-04T14:28:55;26.10;40.50
5176;DHT22;2607;50.934;6.934;2023-06-04T14:31:21;26.10;40.40
5176;DHT22;2607;50.934;6.934;2023-06-04T14:33:47;26.10;41.20
5176;DHT22;2607;50.934;6.934;2023-06-04T14:36:13;26.20;41.10
5176;DHT22;2607;50.934;6.934;2023-06-04T14:38:39;26.10;41.20
5176;DHT22;2607;50.934;6.934;2023-06-04T14:41:05;26.00;42.00
5176;DHT22;2607;50.934;6.934;2023-06-04T14:43:30;25.90;42.50
5176;DHT22;2607;50.934;6.934;2023-06-04T14:45:56;26.00;46.10
5176;DHT22;2607;50.934;6.934;2023-06-04T14:48:21;26.00;50.60
5176;DHT22;2607;50.934;6.934;2023-06-04T14:50:47;26.00;51.30
5176;DHT22;2607;50.934;6.934;2023-06-04T14:53:13;26.00;49.40
5176;DHT22;2607;50.934;6.934;2023-06-04T14:55:38;26.00;45.10
5176;DHT22;2607;50.934;6.934;2023-06-04T14:58:04;26.00;43.50
5176;DHT22;2607;50.934;6.934;2023-06-04T15:00:30;25.90;44.00
5176;DHT22;2607;50.934;6.934;2023-06-04T15:02:56;25.90;44.50
5176;DHT22;2607;50.934;6.934;2023-06-04T15:05:22;25.80;43.90
5176;DHT22;2607;50.934;6.934;2023-06-04T15:07:48;25.70;43.00
5176;DHT22;2607;50.934;6.934;2023-06-04T15:10:13;25.70;44.40
5176;DHT22;2607;50.934;6.934;2023-06-04T15:12:39;25.60;45.00
5176;DHT22;2607;50.934;6.934;2023-06-04T15:15:06;25.60;45.70
5176;DHT22;2607;50.934;6.934;2023-06-04T15:17:32;25.50;49.90
5176;DHT22;2607;50.934;6.934;2023-06-04T15:19:57;25.50;50.90
5176;DHT22;2607;50.934;6.934;2023-06-04T15:22:24;25.50;49.50
5176;DHT22;2607;50.934;6.934;2023-06-04T15:24:50;25.50;46.50
5176;DHT22;2607;50.934;6.934;2023-06-04T15:27:15;25.50;43.40
5176;DHT22;2607;50.934;6.934;2023-06-04T15:29:43;25.50;46.00
5176;DHT22;2607;50.934;6.934;2023-06-04T15:32:08;25.40;45.30
5176;DHT22;2607;50.934;6.934;2023-06-04T15:34:34;25.30;45.00
5176;DHT22;2607;50.934;6.934;2023-06-04T15:36:59;25.30;44.30
5176;DHT22;2607;50.934;6.934;2023-06-04T15:39:25;25.30;43.70
5176;DHT22;2607;50.934;6.934;2023-06-04T15:41:51;25.20;44.20
5176;DHT22;2607;50.934;6.934;2023-06-04T15:44:16;25.20;44.30
5176;DHT22;2607;50.934;6.934;2023-06-04T15:46:42;25.20;44.10
5176;DHT22;2607;50.934;6.934;2023-06-04T15:49:09;25.20;44.30
5176;DHT22;2607;50.934;6.934;2023-06-04T15:51:35;25.10;44.80
5176;DHT22;2607;50.934;6.934;2023-06-04T15:54:01;25.10;44.40
5176;DHT22;2607;50.934;6.934;2023-06-04T15:56:27;25.10;44.80
5176;DHT22;2607;50.934;6.934;2023-06-04T15:58:53;25.10;45.30
5176;DHT22;2607;50.934;6.934;2023-06-04T16:01:19;25.10;45.30
5176;DHT22;2607;50.934;6.934;2023-06-04T16:03:44;25.10;48.80
5176;DHT22;2607;50.934;6.934;2023-06-04T16:06:10;25.10;48.80
5176;DHT22;2607;50.934;6.934;2023-06-04T16:08:36;25.10;48.40